Time;durP1;ratioP1;P1;durP2;ratioP2;P2;SDS_P1;SDS_P2;PMS_P1;PMS_P2;Temp;Humidity;BMP_temperature;BMP_pressure;BME280_temperature;BME280_humidity;BME280_pressure;Samples;Min_cycle;Max_cycle;Signal;HPM_P1;HPM_P2
2022/10/16 00:00:47;;;;;;;2.47;2.10;;;15.80;99.90;;;;;;6108065;23;20461;-76
2022/10/16 00:03:14;;;;;;;2.67;2.47;;;15.90;99.90;;;;;;6101086;23;20526;-76
2022/10/16 00:05:43;;;;;;;2.07;1.97;;;15.90;99.90;;;;;;6111333;23;20439;-77
2022/10/16 00:08:12;;;;;;;2.50;2.30;;;15.90;99.90;;;;;;6102934;23;20470;-76
2022/10/16 00:10:39;;;;;;;3.33;2.23;;;16.00;99.90;;;;;;6091207;23;20488;-76
2022/10/16 00:13:07;;;;;;;2.20;2.00;;;16.00;99.90;;;;;;6091977;23;20884;-76
2022/10/16 00:15:35;;;;;;;2.40;2.20;;;16.00;99.90;;;;;;6099766;23;20438;-76
2022/10/16 00:18:05;;;;;;;2.10;2.00;;;16.00;99.90;;;;;;6098226;23;20469;-77
2022/10/16 00:20:36;;;;;;;2.00;1.90;;;16.00;99.90;;;;;;6102634;23;20563;-76
2022/10/16 00:23:04;;;;;;;2.47;2.07;;;16.00;99.90;;;;;;6091544;23;20446;-76
2022/10/16 00:25:32;;;;;;;2.63;2.07;;;16.10;99.90;;;;;;6104949;23;20449;-76
2022/10/16 00:28:00;;;;;;;2.10;1.90;;;16.00;99.90;;;;;;6094086;23;20521;-76
2022/10/16 00:30:28;;;;;;;2.80;2.23;;;16.10;99.90;;;;;;6083785;23;20446;-76
2022/10/16 00:32:56;;;;;;;3.40;2.17;;;16.00;99.90;;;;;;6096636;23;20438;-79
2022/10/16 00:35:25;;;;;;;2.53;2.20;;;16.00;99.90;;;;;;6091347;23;20489;-76
2022/10/16 00:37:52;;;;;;;2.70;2.00;;;16.00;99.90;;;;;;6092726;23;20488;-76
2022/10/16 00:40:19;;;;;;;2.03;1.70;;;15.90;99.90;;;;;;6093442;23;20449;-77
2022/10/16 00:42:46;;;;;;;4.17;1.87;;;15.90;99.90;;;;;;6090146;23;20448;-76
2022/10/16 00:45:14;;;;;;;2.20;1.87;;;15.90;99.90;;;;;;6107782;23;20434;-76
2022/10/16 00:47:45;;;;;;;2.97;2.20;;;15.90;99.90;;;;;;6089930;23;20442;-76
2022/10/16 00:50:20;;;;;;;2.63;2.27;;;15.90;99.90;;;;;;6100171;23;20450;-76
2022/10/16 00:52:50;;;;;;;2.40;2.20;;;15.90;99.90;;;;;;6092414;23;20434;-76
2022/10/16 00:55:19;;;;;;;3.53;1.83;;;15.90;99.90;;;;;;6107522;23;20489;-76
2022/10/16 00:57:47;;;;;;;2.27;2.07;;;15.90;99.90;;;;;;6084609;23;20441;-77
2022/10/16 01:00:18;;;;;;;1.80;1.70;;;15.90;99.90;;;;;;6089631;23;21010;-77
2022/10/16 01:02:53;;;;;;;2.00;1.90;;;15.90;99.90;;;;;;6091597;23;20446;-76
2022/10/16 01:05:23;;;;;;;2.37;2.03;;;15.90;99.90;;;;;;6115575;23;20440;-77
2022/10/16 01:07:59;;;;;;;2.40;2.20;;;15.90;99.90;;;;;;6091851;23;20426;-76
2022/10/16 01:10:36;;;;;;;2.33;2.13;;;15.90;99.90;;;;;;6090815;23;20513;-77
2022/10/16 01:13:07;;;;;;;2.10;1.90;;;15.90;99.90;;;;;;6112740;23;21020;-76
2022/10/16 01:15:38;;;;;;;2.03;1.93;;;15.90;99.90;;;;;;6103974;23;20985;-76
2022/10/16 01:18:11;;;;;;;2.40;2.20;;;15.80;99.90;;;;;;6094906;23;20453;-76
2022/10/16 01:20:47;;;;;;;3.20;2.10;;;15.80;99.90;;;;;;6113800;23;20458;-76
2022/10/16 01:23:28;;;;;;;2.87;2.23;;;15.80;99.90;;;;;;6112920;23;20938;-76
2022/10/16 01:26:13;;;;;;;2.23;1.83;;;15.80;99.90;;;;;;6095270;23;20442;-76
2022/10/16 01:28:49;;;;;;;3.00;1.97;;;15.70;99.90;;;;;;6083637;23;20453;-76
2022/10/16 01:31:23;;;;;;;2.47;1.60;;;15.70;99.90;;;;;;6094952;23;20518;-76
2022/10/16 01:33:57;;;;;;;1.90;1.77;;;15.70;99.90;;;;;;6087389;23;20449;-76
2022/10/16 01:36:29;;;;;;;2.20;1.90;;;15.70;99.90;;;;;;6095442;23;20444;-76
2022/10/16 01:39:02;;;;;;;2.33;2.00;;;15.80;99.90;;;;;;6090217;23;20932;-76
2022/10/16 01:41:34;;;;;;;2.07;1.87;;;15.70;99.90;;;;;;6090148;23;20528;-76
2022/10/16 01:44:05;;;;;;;2.57;1.90;;;15.70;99.90;;;;;;6117561;23;20426;-75
2022/10/16 01:46:35;;;;;;;2.87;2.27;;;15.70;99.90;;;;;;6091634;23;20465;-76
2022/10/16 01:49:04;;;;;;;2.73;2.00;;;15.60;99.90;;;;;;6108900;23;20499;-76
2022/10/16 01:51:31;;;;;;;2.97;2.53;;;15.70;99.90;;;;;;6088621;23;20435;-76
2022/10/16 01:54:01;;;;;;;2.07;1.87;;;15.70;99.90;;;;;;6085633;23;20912;-77
2022/10/16 01:56:30;;;;;;;1.90;1.80;;;15.70;99.90;;;;;;6099408;23;20445;-76
2022/10/16 01:59:02;;;;;;;3.47;2.20;;;15.60;99.90;;;;;;6095282;23;21129;-76
2022/10/16 02:01:34;;;;;;;2.50;2.30;;;15.70;99.90;;;;;;6088649;23;20550;-76
2022/10/16 02:04:08;;;;;;;2.20;2.00;;;15.60;99.90;;;;;;6104262;23;20532;-76
2022/10/16 02:06:36;;;;;;;4.80;2.37;;;15.70;99.90;;;;;;6099225;23;20450;-76
2022/10/16 02:09:03;;;;;;;2.33;1.80;;;15.70;99.90;;;;;;6094281;23;20486;-76
2022/10/16 02:11:32;;;;;;;3.27;2.60;;;15.70;99.90;;;;;;6078988;23;20943;-76
2022/10/16 02:14:06;;;;;;;3.47;1.87;;;15.70;99.90;;;;;;6089454;23;20484;-76
2022/10/16 02:16:39;;;;;;;3.23;2.13;;;15.70;99.90;;;;;;6091781;23;20473;-76
2022/10/16 02:19:07;;;;;;;3.27;2.13;;;15.70;99.90;;;;;;6107407;23;20469;-76
2022/10/16 02:21:44;;;;;;;3.47;2.10;;;15.80;99.90;;;;;;6088793;23;20918;-76
2022/10/16 02:24:19;;;;;;;1.90;1.80;;;15.80;99.90;;;;;;6090172;23;20480;-76
2022/10/16 02:26:52;;;;;;;2.40;2.20;;;15.80;99.90;;;;;;6101514;23;20926;-76
2022/10/16 02:29:25;;;;;;;2.30;2.10;;;15.80;99.90;;;;;;6085107;23;21265;-76
2022/10/16 02:31:59;;;;;;;2.80;2.03;;;15.80;99.90;;;;;;6090108;23;20643;-76
2022/10/16 02:34:29;;;;;;;3.70;1.93;;;15.80;99.90;;;;;;6116462;23;20520;-76
2022/10/16 02:36:58;;;;;;;2.87;2.23;;;15.80;99.90;;;;;;6106316;23;20443;-76
2022/10/16 02:39:26;;;;;;;2.50;2.20;;;15.80;99.90;;;;;;6091132;23;20462;-76
2022/10/16 02:41:53;;;;;;;2.70;2.17;;;15.80;99.90;;;;;;6098319;23;20835;-76
2022/10/16 02:44:20;;;;;;;2.70;1.87;;;15.80;99.90;;;;;;6095853;23;20453;-76
2022/10/16 02:46:47;;;;;;;2.40;2.10;;;15.80;99.90;;;;;;6109073;23;20536;-76
2022/10/16 02:49:16;;;;;;;2.30;2.10;;;15.80;99.90;;;;;;6104916;23;20456;-76
2022/10/16 02:51:43;;;;;;;2.20;2.00;;;15.80;99.90;;;;;;6100336;23;20548;-76
2022/10/16 02:54:10;;;;;;;2.37;2.17;;;15.80;99.90;;;;;;6103307;23;20525;-76
2022/10/16 02:56:37;;;;;;;3.80;2.53;;;15.80;99.90;;;;;;6092338;23;20450;-76
2022/10/16 02:59:05;;;;;;;3.03;2.20;;;15.80;99.90;;;;;;6076107;23;20920;-76
2022/10/16 03:01:32;;;;;;;2.50;2.00;;;15.80;99.90;;;;;;6100677;23;20464;-76
2022/10/16 03:03:59;;;;;;;1.93;1.80;;;15.80;99.90;;;;;;6113485;23;21007;-76
2022/10/16 03:06:28;;;;;;;3.03;2.70;;;15.80;99.90;;;;;;6104939;23;20492;-76
2022/10/16 03:08:55;;;;;;;2.23;2.03;;;15.80;99.90;;;;;;6097039;23;20434;-76
2022/10/16 03:11:22;;;;;;;2.33;2.13;;;15.80;99.90;;;;;;6089350;23;20445;-76
2022/10/16 03:13:49;;;;;;;3.83;2.40;;;15.80;99.90;;;;;;6097007;23;20474;-76
2022/10/16 03:16:16;;;;;;;4.00;2.83;;;15.80;99.90;;;;;;6101022;23;20799;-76
2022/10/16 03:18:44;;;;;;;2.37;2.00;;;15.70;99.90;;;;;;6095070;23;20449;-76
2022/10/16 03:21:12;;;;;;;2.40;2.20;;;15.70;99.90;;;;;;6080267;23;20480;-76
2022/10/16 03:23:40;;;;;;;2.60;2.40;;;15.60;99.90;;;;;;6109567;23;20840;-76
2022/10/16 03:26:08;;;;;;;4.10;2.20;;;15.70;99.90;;;;;;6099843;23;20935;-76
2022/10/16 03:28:35;;;;;;;4.70;2.20;;;15.60;99.90;;;;;;6089766;23;21108;-76
2022/10/16 03:31:02;;;;;;;2.10;1.90;;;15.60;99.90;;;;;;6104117;23;20511;-76
2022/10/16 03:33:29;;;;;;;3.03;2.50;;;15.60;99.90;;;;;;6098104;23;20485;-76
2022/10/16 03:35:58;;;;;;;2.57;2.10;;;15.50;99.90;;;;;;6102268;23;20512;-76
2022/10/16 03:38:25;;;;;;;2.57;2.20;;;15.50;99.90;;;;;;6082489;23;20499;-76
2022/10/16 03:40:53;;;;;;;2.00;1.90;;;15.50;99.90;;;;;;6099945;23;20470;-76
2022/10/16 03:43:21;;;;;;;3.10;2.17;;;15.50;99.90;;;;;;6104922;23;20865;-76
2022/10/16 03:45:48;;;;;;;4.03;2.27;;;15.50;99.90;;;;;;6115507;23;20835;-76
2022/10/16 03:48:15;;;;;;;2.07;1.97;;;15.50;99.90;;;;;;6100137;23;20438;-76
2022/10/16 03:50:42;;;;;;;2.60;2.40;;;15.60;99.90;;;;;;6087234;23;20482;-76
2022/10/16 03:53:09;;;;;;;2.40;2.20;;;15.50;99.90;;;;;;6107213;23;20437;-76
2022/10/16 03:55:37;;;;;;;2.60;2.40;;;15.50;99.90;;;;;;6094040;23;20446;-76
2022/10/16 03:58:06;;;;;;;2.90;2.40;;;15.50;99.90;;;;;;6094520;23;20433;-77
2022/10/16 04:00:34;;;;;;;2.77;2.07;;;15.50;99.90;;;;;;6088361;23;20923;-76
2022/10/16 04:03:01;;;;;;;2.80;2.07;;;15.50;99.90;;;;;;6092193;23;20501;-76
2022/10/16 04:05:28;;;;;;;3.20;2.33;;;15.40;99.90;;;;;;6094300;23;20470;-76
2022/10/16 04:07:55;;;;;;;2.10;1.90;;;15.40;99.90;;;;;;6091615;23;20483;-76
2022/10/16 04:10:23;;;;;;;2.63;2.20;;;15.40;99.90;;;;;;6092481;23;20544;-76
2022/10/16 04:12:50;;;;;;;3.93;2.20;;;15.40;99.90;;;;;;6096154;23;20521;-76
2022/10/16 04:15:18;;;;;;;2.07;1.87;;;15.40;99.90;;;;;;6105592;23;20817;-76
2022/10/16 04:17:46;;;;;;;2.40;2.07;;;15.40;99.90;;;;;;6106896;23;20547;-76
2022/10/16 04:20:13;;;;;;;2.27;2.10;;;15.40;99.90;;;;;;6097327;23;20444;-76
2022/10/16 04:22:40;;;;;;;2.77;1.97;;;15.40;99.90;;;;;;6102151;23;20473;-76
2022/10/16 04:25:09;;;;;;;4.17;2.37;;;15.30;99.90;;;;;;6115326;23;20440;-76
2022/10/16 04:27:36;;;;;;;2.27;2.07;;;15.30;99.90;;;;;;6088724;23;20442;-76
2022/10/16 04:30:05;;;;;;;2.70;2.20;;;15.30;99.90;;;;;;6110873;23;20437;-76
2022/10/16 04:32:34;;;;;;;3.07;2.20;;;15.30;99.90;;;;;;6110554;23;20441;-76
2022/10/16 04:35:04;;;;;;;2.53;2.30;;;15.30;99.90;;;;;;6090560;23;20418;-76
2022/10/16 04:37:31;;;;;;;2.47;2.27;;;15.30;99.90;;;;;;6136026;23;20440;-76
2022/10/16 04:39:59;;;;;;;2.20;2.00;;;15.30;99.90;;;;;;6090138;23;20516;-76
2022/10/16 04:42:26;;;;;;;2.60;2.13;;;15.30;99.90;;;;;;6095601;23;20544;-76
2022/10/16 04:44:53;;;;;;;4.23;2.20;;;15.30;99.90;;;;;;6093688;23;20457;-76
2022/10/16 04:47:20;;;;;;;2.10;1.87;;;15.40;99.90;;;;;;6090354;23;20453;-76
2022/10/16 04:49:49;;;;;;;4.30;1.97;;;15.30;99.90;;;;;;6090850;23;20453;-76
2022/10/16 04:52:17;;;;;;;4.53;2.50;;;15.30;99.90;;;;;;6096665;23;20438;-76
2022/10/16 04:54:44;;;;;;;4.27;2.10;;;15.30;99.90;;;;;;6093989;23;20440;-76
2022/10/16 04:57:12;;;;;;;2.07;1.60;;;15.30;99.90;;;;;;6091677;23;20432;-76
2022/10/16 04:59:39;;;;;;;3.03;2.30;;;15.30;99.90;;;;;;6094593;23;20457;-76
2022/10/16 05:02:06;;;;;;;2.20;2.00;;;15.40;99.90;;;;;;6091200;23;20477;-76
2022/10/16 05:04:34;;;;;;;2.60;1.80;;;15.40;99.90;;;;;;6090204;23;20570;-76
2022/10/16 05:07:03;;;;;;;2.60;2.20;;;15.40;99.90;;;;;;6091269;23;20434;-76
2022/10/16 05:09:30;;;;;;;2.00;1.80;;;15.40;99.90;;;;;;6091141;23;20426;-76
2022/10/16 05:11:57;;;;;;;2.63;2.17;;;15.40;99.90;;;;;;6077946;23;20488;-76
2022/10/16 05:14:24;;;;;;;3.83;2.00;;;15.40;99.90;;;;;;6079441;23;20428;-75
2022/10/16 05:16:51;;;;;;;2.80;1.80;;;15.50;99.90;;;;;;6081943;23;20465;-77
2022/10/16 05:19:19;;;;;;;4.93;1.77;;;15.50;99.90;;;;;;6092866;23;20776;-76
2022/10/16 05:21:46;;;;;;;2.00;1.70;;;15.50;99.90;;;;;;6086151;23;20480;-76
2022/10/16 05:24:15;;;;;;;4.27;1.70;;;15.50;99.90;;;;;;6090586;23;20478;-76
2022/10/16 05:26:43;;;;;;;2.30;1.70;;;15.50;99.90;;;;;;6090624;23;20525;-76
2022/10/16 05:29:10;;;;;;;3.10;1.80;;;15.60;99.90;;;;;;6103379;23;20454;-76
2022/10/16 05:31:37;;;;;;;2.03;1.80;;;15.60;99.90;;;;;;6086433;23;20441;-76
2022/10/16 05:34:04;;;;;;;1.87;1.77;;;15.60;99.90;;;;;;6091644;23;20871;-76
2022/10/16 05:36:34;;;;;;;1.90;1.80;;;15.60;99.90;;;;;;6094566;23;20446;-81
2022/10/16 05:39:01;;;;;;;2.03;1.83;;;15.60;99.90;;;;;;6091917;23;20446;-81
2022/10/16 05:41:31;;;;;;;1.93;1.50;;;15.60;99.90;;;;;;6086837;23;20450;-82
2022/10/16 05:43:58;;;;;;;1.97;1.80;;;15.70;99.90;;;;;;6089331;23;20458;-81
2022/10/16 05:46:26;;;;;;;2.40;2.20;;;15.70;99.90;;;;;;6083810;23;20433;-81
2022/10/16 05:48:54;;;;;;;2.27;1.70;;;15.70;99.90;;;;;;6099047;23;20449;-81
2022/10/16 05:51:21;;;;;;;1.93;1.80;;;15.60;99.90;;;;;;6090725;23;20951;-79
2022/10/16 05:53:50;;;;;;;2.43;1.73;;;15.60;99.90;;;;;;6083905;23;21163;-80
2022/10/16 05:56:17;;;;;;;2.80;1.70;;;15.60;99.90;;;;;;6070653;23;21004;-78
2022/10/16 05:58:46;;;;;;;2.23;2.03;;;15.60;99.90;;;;;;6074145;23;20436;-78
2022/10/16 06:01:15;;;;;;;3.60;2.40;;;15.60;99.90;;;;;;6085028;23;20440;-78
2022/10/16 06:03:43;;;;;;;3.17;2.20;;;15.60;99.90;;;;;;6093397;23;21055;-77
2022/10/16 06:06:11;;;;;;;2.70;2.20;;;15.50;99.90;;;;;;6132350;23;20518;-77
2022/10/16 06:08:38;;;;;;;2.33;2.13;;;15.50;99.90;;;;;;6110920;23;20965;-77
2022/10/16 06:11:07;;;;;;;5.63;2.13;;;15.40;99.90;;;;;;6095868;23;20847;-77
2022/10/16 06:13:34;;;;;;;3.20;1.90;;;15.40;99.90;;;;;;6101323;23;20457;-76
2022/10/16 06:16:04;;;;;;;2.53;2.17;;;15.40;99.90;;;;;;6093569;23;20433;-77
2022/10/16 06:18:32;;;;;;;3.00;2.30;;;15.30;99.90;;;;;;6087119;23;20522;-77
2022/10/16 06:20:59;;;;;;;3.07;2.10;;;15.30;99.90;;;;;;6090067;23;20426;-77
2022/10/16 06:23:29;;;;;;;3.10;2.43;;;15.20;99.90;;;;;;6096909;23;20511;-77
2022/10/16 06:26:05;;;;;;;2.80;2.27;;;15.20;99.90;;;;;;6144628;23;20443;-77
2022/10/16 06:28:32;;;;;;;2.27;2.00;;;15.20;99.90;;;;;;6084397;23;20954;-77
2022/10/16 06:31:00;;;;;;;2.33;2.03;;;15.20;99.90;;;;;;6135686;23;20432;-82
2022/10/16 06:33:29;;;;;;;6.03;2.10;;;15.20;99.90;;;;;;6091481;23;20457;-76
2022/10/16 06:36:01;;;;;;;2.33;2.13;;;15.20;99.90;;;;;;6084532;23;20842;-76
2022/10/16 06:38:29;;;;;;;2.43;2.20;;;15.10;99.90;;;;;;6103646;23;20589;-76
2022/10/16 06:40:56;;;;;;;4.87;2.53;;;15.10;99.90;;;;;;6079061;23;20497;-76
2022/10/16 06:43:23;;;;;;;3.77;2.40;;;15.10;99.90;;;;;;6089329;23;20644;-77
2022/10/16 06:45:54;;;;;;;4.50;2.50;;;15.00;99.90;;;;;;6092425;23;20496;-77
2022/10/16 06:48:22;;;;;;;5.40;2.10;;;15.10;99.90;;;;;;6084783;23;20556;-78
2022/10/16 06:50:58;;;;;;;4.20;2.43;;;15.10;99.90;;;;;;6085018;23;20521;-80
2022/10/16 06:53:27;;;;;;;2.73;2.47;;;15.10;99.90;;;;;;6097399;23;20435;-80
2022/10/16 06:55:54;;;;;;;2.30;2.10;;;15.20;99.90;;;;;;6091812;23;20518;-80
2022/10/16 06:58:21;;;;;;;2.17;1.97;;;15.20;99.90;;;;;;6079611;23;20531;-77
2022/10/16 07:00:49;;;;;;;2.47;2.27;;;15.20;99.90;;;;;;6079620;23;20524;-77
2022/10/16 07:03:16;;;;;;;2.83;2.33;;;15.20;99.90;;;;;;6140308;23;20971;-76
2022/10/16 07:05:44;;;;;;;4.77;2.30;;;15.20;99.90;;;;;;6100429;23;20448;-76
2022/10/16 07:08:13;;;;;;;2.63;2.20;;;15.30;99.90;;;;;;6091171;23;20444;-76
2022/10/16 07:10:40;;;;;;;2.27;2.07;;;15.30;99.90;;;;;;6095012;23;20993;-76
2022/10/16 07:13:07;;;;;;;2.47;2.00;;;15.30;99.90;;;;;;6085689;23;20451;-76
2022/10/16 07:15:35;;;;;;;3.03;2.33;;;15.40;99.90;;;;;;6095264;23;20442;-76
2022/10/16 07:18:01;;;;;;;3.40;2.00;;;15.40;99.90;;;;;;6091673;23;20458;-76
2022/10/16 07:20:28;;;;;;;2.40;2.20;;;15.50;99.90;;;;;;6098181;23;20488;-77
2022/10/16 07:22:57;;;;;;;4.53;2.40;;;15.50;99.90;;;;;;6097983;23;20458;-77
2022/10/16 07:25:26;;;;;;;2.43;2.23;;;15.50;99.90;;;;;;6105658;23;20523;-77
2022/10/16 07:27:56;;;;;;;2.33;2.10;;;15.60;99.90;;;;;;6084003;23;20442;-79
2022/10/16 07:30:24;;;;;;;2.07;1.97;;;15.60;99.90;;;;;;6081474;23;20980;-75
2022/10/16 07:32:51;;;;;;;2.20;1.90;;;15.60;99.90;;;;;;6081286;23;20433;-77
2022/10/16 07:35:18;;;;;;;2.13;2.00;;;15.60;99.90;;;;;;6094565;23;21087;-77
2022/10/16 07:37:46;;;;;;;3.90;2.37;;;15.60;99.90;;;;;;6126671;23;20950;-77
2022/10/16 07:40:13;;;;;;;2.57;2.33;;;15.60;99.90;;;;;;6091261;23;20461;-77
2022/10/16 07:42:42;;;;;;;2.40;2.20;;;15.60;99.90;;;;;;6091823;23;20434;-77
2022/10/16 07:45:10;;;;;;;1.93;1.83;;;15.60;99.90;;;;;;6104124;23;20513;-77
2022/10/16 07:47:37;;;;;;;3.17;2.00;;;15.60;99.90;;;;;;6082176;23;20441;-77
2022/10/16 07:50:04;;;;;;;3.33;2.30;;;15.60;99.90;;;;;;6091588;23;20431;-77
2022/10/16 07:52:32;;;;;;;3.60;2.67;;;15.60;99.90;;;;;;6092288;23;20422;-77
2022/10/16 07:54:59;;;;;;;2.27;2.13;;;15.60;99.90;;;;;;6089324;23;21117;-77
2022/10/16 07:57:26;;;;;;;2.37;2.20;;;15.70;99.90;;;;;;6101697;23;20495;-77
2022/10/16 07:59:55;;;;;;;4.10;2.30;;;15.70;99.90;;;;;;6121029;23;20471;-77
2022/10/16 08:02:22;;;;;;;2.60;2.40;;;15.70;99.90;;;;;;6120081;23;20425;-77
2022/10/16 08:04:50;;;;;;;2.73;2.10;;;15.80;99.90;;;;;;6127582;23;20809;-77
2022/10/16 08:07:17;;;;;;;4.40;2.57;;;15.80;99.90;;;;;;6121841;23;20456;-77
2022/10/16 08:09:44;;;;;;;2.87;2.60;;;15.90;99.90;;;;;;6121998;23;20520;-77
2022/10/16 08:12:11;;;;;;;3.67;2.30;;;15.90;99.90;;;;;;6121485;23;20449;-77
2022/10/16 08:14:39;;;;;;;2.53;2.33;;;16.00;99.90;;;;;;6126419;23;20846;-78
2022/10/16 08:17:07;;;;;;;3.60;2.20;;;16.10;99.90;;;;;;6119692;23;20528;-77
2022/10/16 08:19:34;;;;;;;2.40;2.20;;;16.20;99.90;;;;;;6121965;23;20444;-77
2022/10/16 08:22:02;;;;;;;3.17;2.33;;;16.40;99.90;;;;;;6124264;23;20417;-77
2022/10/16 08:24:30;;;;;;;2.20;1.90;;;16.50;99.90;;;;;;6127388;23;20477;-77
2022/10/16 08:26:57;;;;;;;2.83;1.80;;;16.70;99.90;;;;;;6123843;23;20428;-77
2022/10/16 08:29:25;;;;;;;4.00;1.83;;;17.00;99.90;;;;;;6123259;23;20460;-77
2022/10/16 08:31:52;;;;;;;2.17;1.77;;;17.40;99.90;;;;;;6120615;23;20516;-77
2022/10/16 08:34:21;;;;;;;3.80;1.80;;;17.80;99.90;;;;;;6114775;23;20920;-77
2022/10/16 08:36:48;;;;;;;2.97;2.03;;;18.00;99.90;;;;;;6097828;23;20868;-77
2022/10/16 08:39:16;;;;;;;5.40;2.07;;;18.10;99.90;;;;;;6120921;23;20472;-77
2022/10/16 08:42:17;;;;;;;3.37;2.37;;;18.20;99.90;;;;;;6120561;23;20456;-77
2022/10/16 08:45:16;;;;;;;2.30;2.10;;;18.20;99.90;;;;;;6125583;23;20570;-77
2022/10/16 08:47:50;;;;;;;1.93;1.83;;;18.30;99.90;;;;;;6118224;23;20429;-77
2022/10/16 08:50:25;;;;;;;2.20;2.00;;;18.40;99.90;;;;;;6111297;23;20454;-78
2022/10/16 08:52:52;;;;;;;3.60;1.80;;;18.50;99.90;;;;;;6120806;23;20421;-77
2022/10/16 08:55:32;;;;;;;2.70;2.07;;;18.50;99.90;;;;;;6127309;23;20441;-77
2022/10/16 08:57:59;;;;;;;2.00;1.90;;;18.40;99.90;;;;;;6117711;23;20432;-77
2022/10/16 09:00:28;;;;;;;2.27;1.43;;;18.40;99.90;;;;;;6118587;23;20514;-77
2022/10/16 09:03:07;;;;;;;5.07;2.00;;;18.50;99.90;;;;;;6120740;23;20487;-77
2022/10/16 09:05:50;;;;;;;3.93;2.03;;;18.40;99.90;;;;;;6120219;23;20461;-77
2022/10/16 09:08:28;;;;;;;2.47;2.00;;;18.40;99.90;;;;;;6120979;23;20483;-78
2022/10/16 09:11:00;;;;;;;1.70;1.60;;;18.40;99.90;;;;;;6114266;23;21004;-77
2022/10/16 09:13:31;;;;;;;3.33;2.07;;;18.40;99.90;;;;;;6115874;23;20426;-77
2022/10/16 09:16:11;;;;;;;2.10;1.50;;;18.30;99.90;;;;;;6121690;23;20445;-77
2022/10/16 09:18:44;;;;;;;4.33;1.90;;;18.30;99.90;;;;;;6120443;23;21005;-77
2022/10/16 09:21:17;;;;;;;2.00;1.80;;;18.30;99.90;;;;;;6112163;23;20439;-77
2022/10/16 09:23:44;;;;;;;2.57;1.90;;;18.40;99.90;;;;;;6120629;23;20442;-77
2022/10/16 09:26:14;;;;;;;1.90;1.73;;;18.60;99.90;;;;;;6126830;23;20434;-77
2022/10/16 09:28:42;;;;;;;2.13;2.03;;;18.90;99.90;;;;;;6121424;23;20483;-77
2022/10/16 09:31:16;;;;;;;2.17;1.70;;;19.20;99.90;;;;;;6110061;23;20430;-77
2022/10/16 09:33:44;;;;;;;3.63;1.80;;;19.60;99.90;;;;;;6121590;23;20424;-78
2022/10/16 09:36:13;;;;;;;3.00;1.50;;;19.90;99.90;;;;;;6119131;23;20427;-77
2022/10/16 09:38:40;;;;;;;1.70;1.60;;;20.20;99.90;;;;;;6119106;23;20930;-77
2022/10/16 09:41:16;;;;;;;3.87;1.90;;;20.60;99.90;;;;;;6120481;23;20507;-78
2022/10/16 09:43:50;;;;;;;2.10;1.60;;;20.90;99.90;;;;;;6119634;23;20452;-77
2022/10/16 09:46:27;;;;;;;1.60;1.50;;;21.30;99.90;;;;;;6126110;23;20510;-77
2022/10/16 09:48:56;;;;;;;3.77;1.73;;;21.20;99.90;;;;;;6129011;23;20440;-77
2022/10/16 09:51:28;;;;;;;2.97;1.50;;;21.40;99.90;;;;;;6120525;23;20518;-77
2022/10/16 09:53:58;;;;;;;3.53;2.43;;;21.40;99.90;;;;;;6120367;23;20501;-77
2022/10/16 09:56:27;;;;;;;1.50;1.40;;;21.40;99.90;;;;;;6118116;23;20457;-78
2022/10/16 09:58:56;;;;;;;3.13;1.63;;;21.50;99.90;;;;;;6125249;23;20476;-78
2022/10/16 10:01:28;;;;;;;2.07;1.50;;;21.70;99.90;;;;;;6126050;23;20439;-78
2022/10/16 10:04:02;;;;;;;2.60;1.53;;;22.20;99.90;;;;;;6130799;23;20510;-77
2022/10/16 10:06:33;;;;;;;2.67;1.73;;;22.60;99.90;;;;;;6120762;23;20512;-78
2022/10/16 10:09:07;;;;;;;2.10;1.90;;;23.20;99.90;;;;;;6120459;23;20931;-78
2022/10/16 10:11:59;;;;;;;3.27;1.53;;;23.60;99.90;;;;;;6118717;23;20936;-77
2022/10/16 10:14:33;;;;;;;2.63;1.77;;;23.70;99.90;;;;;;6096628;23;20437;-77
2022/10/16 10:17:12;;;;;;;1.67;1.47;;;23.60;99.90;;;;;;6121110;23;20445;-77
2022/10/16 10:19:42;;;;;;;2.63;1.70;;;23.40;99.90;;;;;;6120457;23;20778;-77
2022/10/16 10:22:23;;;;;;;4.33;1.60;;;23.50;99.90;;;;;;6120048;23;20476;-77
2022/10/16 10:24:58;;;;;;;4.20;1.60;;;23.70;99.90;;;;;;6115943;23;21004;-78
2022/10/16 10:27:36;;;;;;;2.90;1.50;;;24.30;99.90;;;;;;6122931;23;20486;-78
2022/10/16 10:30:10;;;;;;;2.50;1.70;;;25.00;99.90;;;;;;6120658;23;20516;-76
2022/10/16 10:32:44;;;;;;;1.80;1.70;;;25.80;99.90;;;;;;6120399;23;20429;-75
2022/10/16 10:35:19;;;;;;;1.63;1.53;;;26.40;99.90;;;;;;6120043;23;20429;-76
2022/10/16 10:38:07;;;;;;;3.43;1.50;;;26.70;99.90;;;;;;6129100;23;20459;-77
2022/10/16 10:40:44;;;;;;;1.77;1.50;;;26.30;99.90;;;;;;6121614;23;20476;-78
2022/10/16 10:43:22;;;;;;;1.73;1.63;;;25.70;99.90;;;;;;6120114;23;20418;-77
2022/10/16 10:45:55;;;;;;;1.70;1.50;;;25.40;99.90;;;;;;6120741;23;20425;-77
2022/10/16 10:49:03;;;;;;;2.77;1.50;;;25.30;99.90;;;;;;6120454;23;20441;-77
2022/10/16 10:51:42;;;;;;;2.30;2.10;;;25.20;99.90;;;;;;6119409;23;20894;-78
2022/10/16 10:54:18;;;;;;;2.97;1.80;;;24.90;99.90;;;;;;6118479;23;20482;-77
2022/10/16 10:56:57;;;;;;;2.80;1.70;;;24.80;99.90;;;;;;6120900;23;20440;-77
2022/10/16 10:59:59;;;;;;;2.00;1.67;;;24.50;99.90;;;;;;6118451;23;20459;-78
2022/10/16 11:02:37;;;;;;;2.30;1.83;;;24.70;99.90;;;;;;6001873;23;20977;-77
2022/10/16 11:05:41;;;;;;;3.57;1.57;;;25.40;99.90;;;;;;6101728;23;20453;-78
2022/10/16 11:08:14;;;;;;;2.07;1.47;;;26.30;99.90;;;;;;6002422;23;20512;-77
2022/10/16 11:10:49;;;;;;;1.60;1.40;;;26.90;99.90;;;;;;6105920;23;20527;-77
2022/10/16 11:13:26;;;;;;;1.60;1.50;;;27.40;99.90;;;;;;6120347;23;20417;-77
2022/10/16 11:15:58;;;;;;;1.63;1.53;;;27.60;99.90;;;;;;6111178;23;20428;-77
2022/10/16 11:18:31;;;;;;;3.83;1.37;;;27.90;99.90;;;;;;6113625;23;20567;-77
2022/10/16 11:21:03;;;;;;;2.13;1.73;;;27.90;99.90;;;;;;6116763;23;20537;-77
2022/10/16 11:23:34;;;;;;;1.60;1.50;;;27.90;99.90;;;;;;6119758;23;21013;-77
2022/10/16 11:26:13;;;;;;;1.60;1.40;;;27.90;99.90;;;;;;6118800;23;20772;-77
2022/10/16 11:28:46;;;;;;;1.70;1.60;;;28.10;99.90;;;;;;6120758;23;20429;-77
2022/10/16 11:31:18;;;;;;;2.53;1.37;;;28.40;99.90;;;;;;6118603;23;20457;-77
2022/10/16 11:33:50;;;;;;;2.53;2.20;;;28.80;99.90;;;;;;6119917;23;20460;-78
2022/10/16 11:36:21;;;;;;;1.67;1.50;;;29.40;99.90;;;;;;6119014;23;20436;-77
2022/10/16 11:38:54;;;;;;;1.40;1.30;;;29.60;99.90;;;;;;6120515;23;20790;-77
2022/10/16 11:41:29;;;;;;;2.00;1.50;;;30.00;99.90;;;;;;6118339;23;20452;-77
2022/10/16 11:44:10;;;;;;;2.57;1.40;;;30.40;99.90;;;;;;6120143;23;20440;-77
2022/10/16 11:46:41;;;;;;;2.10;1.60;;;30.90;99.90;;;;;;6120116;23;20504;-77
2022/10/16 11:49:14;;;;;;;1.60;1.50;;;31.30;99.70;;;;;;6119456;23;20479;-77
2022/10/16 11:51:46;;;;;;;1.50;1.40;;;31.30;98.60;;;;;;6119784;23;20430;-77
2022/10/16 11:54:21;;;;;;;2.27;1.40;;;31.20;99.30;;;;;;6118750;23;20430;-77
2022/10/16 11:56:54;;;;;;;1.73;1.47;;;31.20;99.10;;;;;;6119169;23;20437;-77
2022/10/16 11:59:32;;;;;;;1.63;1.30;;;31.10;98.20;;;;;;6117284;23;20537;-77
2022/10/16 12:02:16;;;;;;;2.07;1.50;;;30.70;97.00;;;;;;6119509;23;20511;-77
2022/10/16 12:04:48;;;;;;;1.47;1.30;;;30.10;97.30;;;;;;6115196;23;20462;-77
2022/10/16 12:07:18;;;;;;;1.97;1.40;;;29.60;97.60;;;;;;6117857;23;20926;-77
2022/10/16 12:09:46;;;;;;;3.63;1.47;;;29.50;98.80;;;;;;6106580;23;20421;-77
2022/10/16 12:12:28;;;;;;;1.43;1.33;;;29.80;98.90;;;;;;6119741;23;20790;-77
2022/10/16 12:15:04;;;;;;;2.50;1.40;;;29.80;97.90;;;;;;6119423;23;20512;-77
2022/10/16 12:17:40;;;;;;;2.80;1.90;;;29.80;97.90;;;;;;6119504;23;20441;-75
2022/10/16 12:20:23;;;;;;;1.80;1.70;;;29.60;98.90;;;;;;6119299;23;20914;-75
2022/10/16 12:22:54;;;;;;;1.40;1.30;;;29.50;98.80;;;;;;6119803;23;20846;-75
2022/10/16 12:25:24;;;;;;;3.33;1.37;;;29.30;98.60;;;;;;6128534;23;20445;-75
2022/10/16 12:28:21;;;;;;;1.50;1.40;;;29.10;98.90;;;;;;6118127;23;20433;-76
2022/10/16 12:30:55;;;;;;;1.53;1.43;;;28.80;99.10;;;;;;6120086;23;20487;-77
2022/10/16 12:33:24;;;;;;;1.60;1.50;;;28.50;99.50;;;;;;6113847;23;20436;-77
2022/10/16 12:35:52;;;;;;;1.87;1.20;;;28.10;99.80;;;;;;6116902;23;20760;-77
2022/10/16 12:38:22;;;;;;;1.50;1.30;;;27.70;99.90;;;;;;6130055;23;20818;-77
2022/10/16 12:40:58;;;;;;;4.13;1.60;;;27.50;99.90;;;;;;6120797;23;20437;-77
2022/10/16 12:43:36;;;;;;;3.20;1.57;;;27.50;99.90;;;;;;6120541;23;20586;-77
2022/10/16 12:46:07;;;;;;;1.57;1.30;;;27.60;99.90;;;;;;6122412;23;20919;-77
2022/10/16 12:48:35;;;;;;;2.20;1.50;;;27.60;99.90;;;;;;6121350;23;20512;-77
2022/10/16 12:51:12;;;;;;;1.73;1.30;;;27.70;99.90;;;;;;6120590;23;20834;-77
2022/10/16 12:53:39;;;;;;;1.93;1.40;;;27.90;99.90;;;;;;6120799;23;20427;-77
2022/10/16 12:56:16;;;;;;;1.73;1.50;;;28.10;99.90;;;;;;6120069;23;20433;-77
2022/10/16 12:59:03;;;;;;;1.80;1.47;;;28.40;99.90;;;;;;6119831;23;20432;-77
2022/10/16 13:01:40;;;;;;;2.10;1.60;;;28.60;99.50;;;;;;6120530;23;20483;-77
2022/10/16 13:04:42;;;;;;;2.27;1.80;;;28.60;99.70;;;;;;6119618;23;20429;-77
2022/10/16 13:07:34;;;;;;;1.97;1.50;;;28.70;99.90;;;;;;6052723;23;20516;-77